Time;durP1;ratioP1;P1;durP2;ratioP2;P2;SDS_P1;SDS_P2;PMS_P1;PMS_P2;Temp;Humidity;BMP_temperature;BMP_pressure;BME280_temperature;BME280_humidity;BME280_pressure;Samples;Min_cycle;Max_cycle;Signal;HPM_P1;HPM_P2
2023/08/02 00:00:39;;;;;;;7.55;3.13;;;14.50;99.90;;;;;;4972215;28;20035;-77
2023/08/02 00:03:05;;;;;;;8.00;2.70;;;14.50;99.90;;;;;;4971458;28;20125;-77
2023/08/02 00:05:30;;;;;;;14.65;2.97;;;14.50;99.90;;;;;;4972170;28;20114;-77
2023/08/02 00:07:56;;;;;;;11.95;3.00;;;14.50;99.90;;;;;;4971427;28;20101;-78
2023/08/02 00:10:22;;;;;;;14.13;2.80;;;14.60;99.90;;;;;;4972006;28;20086;-77
2023/08/02 00:12:52;;;;;;;10.90;2.63;;;14.60;99.90;;;;;;4971852;28;20519;-77
2023/08/02 00:15:20;;;;;;;9.55;2.38;;;14.60;99.90;;;;;;4971544;28;20030;-77
2023/08/02 00:17:46;;;;;;;6.22;2.13;;;14.60;99.90;;;;;;4971700;28;20081;-77
2023/08/02 00:20:12;;;;;;;11.18;2.65;;;14.60;99.90;;;;;;4972058;28;20031;-77
2023/08/02 00:22:38;;;;;;;11.35;2.08;;;14.60;99.90;;;;;;4972931;28;20302;-84
2023/08/02 00:25:04;;;;;;;6.90;2.20;;;14.60;99.90;;;;;;4974343;28;20022;-81
2023/08/02 00:27:30;;;;;;;5.35;2.30;;;14.60;99.90;;;;;;4972782;28;20026;-81
2023/08/02 00:29:55;;;;;;;6.95;2.22;;;14.60;99.90;;;;;;4972862;28;20106;-81
2023/08/02 00:32:21;;;;;;;6.72;1.80;;;14.70;99.90;;;;;;4972547;28;20033;-79
2023/08/02 00:34:54;;;;;;;8.00;2.25;;;14.60;99.90;;;;;;4972373;28;20045;-79
2023/08/02 00:37:20;;;;;;;;;;;14.70;99.90;;;;;;4971992;28;20582;-79
2023/08/02 00:39:49;;;;;;;7.80;2.30;;;14.70;99.90;;;;;;4972114;28;19910;-76
2023/08/02 00:42:15;;;;;;;8.32;1.85;;;14.70;99.90;;;;;;4971502;28;20772;-78
2023/08/02 00:44:41;;;;;;;6.95;1.67;;;14.70;99.90;;;;;;4972535;28;20106;-79
2023/08/02 00:47:06;;;;;;;6.50;1.40;;;14.70;99.90;;;;;;4971352;28;20032;-78
2023/08/02 00:49:32;;;;;;;4.55;1.50;;;14.70;99.90;;;;;;4974228;28;20030;-75
2023/08/02 00:51:58;;;;;;;6.05;1.50;;;14.70;99.90;;;;;;4978493;28;20101;-78
2023/08/02 00:54:25;;;;;;;4.80;2.00;;;14.70;99.90;;;;;;4978785;28;20041;-78
2023/08/02 00:56:50;;;;;;;2.47;1.20;;;14.70;99.90;;;;;;4979031;28;20034;-78
2023/08/02 00:59:16;;;;;;;4.30;1.10;;;14.70;99.90;;;;;;4978070;28;20038;-78
2023/08/02 01:01:42;;;;;;;3.72;0.90;;;14.80;99.90;;;;;;4978450;28;20042;-77
2023/08/02 01:04:08;;;;;;;2.22;1.10;;;14.80;99.90;;;;;;4978226;28;20034;-77
2023/08/02 01:06:50;;;;;;;4.18;1.13;;;14.80;99.90;;;;;;4979037;28;20031;-76
2023/08/02 01:09:42;;;;;;;4.47;1.27;;;14.70;99.90;;;;;;4978249;28;20476;-76
2023/08/02 01:12:11;;;;;;;2.88;1.20;;;14.70;99.90;;;;;;4977863;28;20027;-76
2023/08/02 01:14:41;;;;;;;4.45;1.02;;;14.70;99.90;;;;;;4978698;28;20120;-78
2023/08/02 01:17:08;;;;;;;2.63;1.27;;;14.70;99.90;;;;;;4978549;28;20061;-78
2023/08/02 01:19:34;;;;;;;2.28;1.13;;;14.70;99.90;;;;;;4978640;28;20083;-77
2023/08/02 01:21:59;;;;;;;4.60;1.40;;;14.70;99.90;;;;;;4978258;28;20054;-77
2023/08/02 01:24:34;;;;;;;2.45;1.13;;;14.70;99.90;;;;;;4978394;28;20106;-77
2023/08/02 01:27:11;;;;;;;2.63;1.08;;;14.70;99.90;;;;;;4978551;28;20086;-77
2023/08/02 01:29:39;;;;;;;3.33;0.90;;;14.70;99.90;;;;;;4978690;28;20043;-77
2023/08/02 01:32:06;;;;;;;3.22;0.95;;;14.70;99.90;;;;;;4978203;28;20101;-76
2023/08/02 01:34:33;;;;;;;10.25;1.60;;;14.70;99.90;;;;;;4978480;28;20136;-78
2023/08/02 01:36:59;;;;;;;6.55;1.00;;;14.70;99.90;;;;;;4977996;28;20085;-78
2023/08/02 01:39:25;;;;;;;6.50;1.20;;;14.70;99.90;;;;;;4977663;28;20042;-78
2023/08/02 01:41:50;;;;;;;3.30;1.25;;;14.60;99.90;;;;;;4977953;28;20031;-78
2023/08/02 01:44:16;;;;;;;5.13;1.20;;;14.60;99.90;;;;;;4977247;28;20109;-77
2023/08/02 01:46:42;;;;;;;5.38;1.25;;;14.60;99.90;;;;;;4977937;28;20102;-77
2023/08/02 01:49:07;;;;;;;3.15;1.10;;;14.60;99.90;;;;;;4976483;28;20034;-77
2023/08/02 01:51:33;;;;;;;3.70;0.95;;;14.60;99.90;;;;;;4978009;28;20432;-77
2023/08/02 01:53:59;;;;;;;4.15;1.00;;;14.60;99.90;;;;;;4978118;28;20476;-77
2023/08/02 01:56:24;;;;;;;2.85;0.77;;;14.60;99.90;;;;;;4977390;28;20201;-78
2023/08/02 01:58:50;;;;;;;4.45;0.90;;;14.60;99.90;;;;;;4977522;28;20093;-77
2023/08/02 02:01:16;;;;;;;1.50;0.70;;;14.60;99.90;;;;;;4975674;28;20034;-77
2023/08/02 02:03:41;;;;;;;6.13;0.90;;;14.50;99.90;;;;;;4974661;28;20464;-78
2023/08/02 02:06:07;;;;;;;4.60;1.08;;;14.60;99.90;;;;;;4974375;28;20168;-77
2023/08/02 02:08:33;;;;;;;2.05;0.65;;;14.50;99.90;;;;;;4974467;28;20106;-77
2023/08/02 02:10:59;;;;;;;2.78;1.17;;;14.50;99.90;;;;;;4973422;28;20137;-78
2023/08/02 02:13:25;;;;;;;3.40;1.08;;;14.50;99.90;;;;;;4973826;28;20421;-77
2023/08/02 02:15:50;;;;;;;5.57;1.15;;;14.60;99.90;;;;;;4974537;28;20504;-77
2023/08/02 02:18:16;;;;;;;4.07;1.23;;;14.50;99.90;;;;;;4974258;28;20066;-78
2023/08/02 02:20:42;;;;;;;6.53;1.02;;;14.40;99.90;;;;;;4974382;28;20353;-77
2023/08/02 02:23:08;;;;;;;6.40;1.10;;;14.40;99.90;;;;;;4973748;28;20030;-77
2023/08/02 02:25:34;;;;;;;8.07;1.23;;;14.30;99.90;;;;;;4974118;28;20027;-77
2023/08/02 02:27:59;;;;;;;6.35;1.63;;;14.30;99.90;;;;;;4974173;28;20035;-78
2023/08/02 02:30:25;;;;;;;7.72;2.05;;;14.30;99.90;;;;;;4973732;28;20052;-77
2023/08/02 02:32:52;;;;;;;10.45;2.10;;;14.30;99.90;;;;;;4973971;28;20341;-77
2023/08/02 02:35:18;;;;;;;6.95;2.47;;;14.30;99.90;;;;;;4973500;28;20027;-77
2023/08/02 02:37:44;;;;;;;3.17;1.85;;;14.30;99.90;;;;;;4973892;28;20128;-77
2023/08/02 02:40:10;;;;;;;4.50;1.90;;;14.30;99.90;;;;;;4972994;28;20114;-77
2023/08/02 02:42:40;;;;;;;6.97;1.92;;;14.30;99.90;;;;;;4974021;28;20115;-77
2023/08/02 02:45:10;;;;;;;3.85;1.95;;;14.30;99.90;;;;;;4973460;28;20089;-78
2023/08/02 02:47:35;;;;;;;3.90;2.20;;;14.30;99.90;;;;;;4973847;28;20090;-78
2023/08/02 02:50:02;;;;;;;5.18;2.25;;;14.30;99.90;;;;;;4973797;28;20108;-78
2023/08/02 02:52:28;;;;;;;6.53;2.05;;;14.30;99.90;;;;;;4971879;28;20523;-78
2023/08/02 02:54:54;;;;;;;5.78;2.33;;;14.20;99.90;;;;;;4973783;28;20101;-78
2023/08/02 02:57:19;;;;;;;4.10;2.10;;;14.30;99.90;;;;;;4973290;28;20030;-78
2023/08/02 02:59:45;;;;;;;7.38;2.08;;;14.30;99.90;;;;;;4973824;28;20372;-79
2023/08/02 03:02:11;;;;;;;5.45;2.00;;;14.30;99.90;;;;;;4973380;28;20432;-78
2023/08/02 03:04:36;;;;;;;6.88;2.20;;;14.30;99.90;;;;;;4973441;28;20460;-78
2023/08/02 03:07:02;;;;;;;4.82;2.15;;;14.20;99.90;;;;;;4973561;28;20118;-78
2023/08/02 03:09:28;;;;;;;7.90;2.30;;;14.30;99.90;;;;;;4972866;28;20038;-79
2023/08/02 03:11:54;;;;;;;10.02;2.20;;;14.20;99.90;;;;;;4974001;28;20085;-79
2023/08/02 03:14:19;;;;;;;8.27;2.35;;;14.10;99.90;;;;;;4972355;28;20061;-78
2023/08/02 03:16:45;;;;;;;13.23;2.40;;;14.10;99.90;;;;;;4972405;28;20110;-79
2023/08/02 03:19:13;;;;;;;4.68;1.70;;;14.10;99.90;;;;;;4973331;28;20031;-79
2023/08/02 03:21:38;;;;;;;5.00;1.85;;;14.10;99.90;;;;;;4973510;28;20027;-80
2023/08/02 03:24:05;;;;;;;4.97;1.80;;;14.10;99.90;;;;;;4973675;28;20027;-80
2023/08/02 03:26:31;;;;;;;6.70;1.90;;;14.10;99.90;;;;;;4973509;28;20034;-81
2023/08/02 03:28:57;;;;;;;6.13;2.28;;;14.10;99.90;;;;;;4972423;28;20031;-80
2023/08/02 03:31:22;;;;;;;6.30;2.10;;;14.10;99.90;;;;;;4973441;28;20133;-80
2023/08/02 03:33:48;;;;;;;4.40;1.90;;;14.10;99.90;;;;;;4973773;28;20391;-79
2023/08/02 03:36:15;;;;;;;6.65;2.03;;;14.10;99.90;;;;;;4972387;28;20034;-79
2023/08/02 03:38:41;;;;;;;6.97;2.10;;;14.00;99.90;;;;;;4973537;28;20035;-80
2023/08/02 03:41:07;;;;;;;5.55;1.70;;;14.00;99.90;;;;;;4973072;28;20077;-81
2023/08/02 03:43:33;;;;;;;4.55;1.70;;;14.00;99.90;;;;;;4972592;28;20026;-80
2023/08/02 03:45:58;;;;;;;4.32;2.10;;;14.00;99.90;;;;;;4973094;28;20119;-78
2023/08/02 03:48:25;;;;;;;5.85;2.00;;;13.90;99.90;;;;;;4972590;28;20034;-80
2023/08/02 03:50:51;;;;;;;4.95;1.63;;;13.90;99.90;;;;;;4973104;28;20141;-80
2023/08/02 03:53:17;;;;;;;3.53;1.75;;;14.00;99.90;;;;;;4972404;28;20031;-80
2023/08/02 03:55:42;;;;;;;9.65;1.88;;;14.00;99.90;;;;;;4972940;28;20110;-80
2023/08/02 03:58:08;;;;;;;2.78;1.70;;;14.00;99.90;;;;;;4973022;28;20112;-80
2023/08/02 04:00:34;;;;;;;4.65;1.73;;;14.00;99.90;;;;;;4972103;28;20361;-80
2023/08/02 04:03:00;;;;;;;4.65;1.13;;;14.00;99.90;;;;;;4972852;28;20027;-80
2023/08/02 04:05:25;;;;;;;10.20;1.70;;;14.00;99.90;;;;;;4972202;28;20368;-80
2023/08/02 04:07:51;;;;;;;4.70;1.50;;;14.00;99.90;;;;;;4972912;28;20417;-81
2023/08/02 04:10:17;;;;;;;4.13;1.38;;;14.00;99.90;;;;;;4971919;28;20035;-80
2023/08/02 04:12:43;;;;;;;6.18;1.60;;;14.00;99.90;;;;;;4972510;28;20029;-81
2023/08/02 04:15:09;;;;;;;4.57;1.30;;;13.90;99.90;;;;;;4972628;28;20031;-80
2023/08/02 04:17:35;;;;;;;2.65;1.10;;;13.90;99.90;;;;;;4970487;28;20039;-80
2023/08/02 04:20:01;;;;;;;5.28;1.88;;;14.00;99.90;;;;;;4972578;28;20166;-80
2023/08/02 04:22:30;;;;;;;4.07;1.40;;;14.00;99.90;;;;;;4971927;28;20480;-80
2023/08/02 04:24:56;;;;;;;5.80;1.15;;;14.00;99.90;;;;;;4972434;28;20077;-80
2023/08/02 04:27:21;;;;;;;2.95;1.00;;;14.00;99.90;;;;;;4971712;28;20126;-80
2023/08/02 04:29:49;;;;;;;3.83;1.40;;;14.10;99.90;;;;;;4972017;28;20037;-80
2023/08/02 04:32:15;;;;;;;2.80;1.30;;;14.00;99.90;;;;;;4971832;28;20086;-79
2023/08/02 04:34:40;;;;;;;5.35;1.30;;;14.10;99.90;;;;;;4972397;28;20030;-79
2023/08/02 04:37:06;;;;;;;6.28;1.15;;;14.10;99.90;;;;;;4972108;28;20080;-79
2023/08/02 04:39:32;;;;;;;4.57;0.95;;;14.20;99.90;;;;;;4971679;28;20037;-80
2023/08/02 04:42:02;;;;;;;5.38;1.48;;;14.20;99.90;;;;;;4971913;28;20440;-79
2023/08/02 04:44:28;;;;;;;6.43;1.48;;;14.20;99.90;;;;;;4971756;28;20058;-80
2023/08/02 04:46:54;;;;;;;2.58;1.42;;;14.10;99.90;;;;;;4970839;28;20027;-79
2023/08/02 04:49:19;;;;;;;4.65;1.70;;;14.20;99.90;;;;;;4971130;28;20057;-80
2023/08/02 04:51:45;;;;;;;8.38;1.60;;;14.20;99.90;;;;;;4971613;28;20074;-80
2023/08/02 04:54:11;;;;;;;7.90;1.70;;;14.20;99.90;;;;;;4972052;28;20027;-80
2023/08/02 04:56:38;;;;;;;5.70;1.45;;;14.10;99.90;;;;;;4971478;28;20030;-80
2023/08/02 04:59:05;;;;;;;6.97;1.65;;;14.20;99.90;;;;;;4972322;28;20045;-81
2023/08/02 05:01:31;;;;;;;7.22;1.67;;;14.20;99.90;;;;;;4971298;28;20384;-80
2023/08/02 05:03:57;;;;;;;5.38;1.40;;;14.30;99.90;;;;;;4971575;28;20092;-81
2023/08/02 05:06:23;;;;;;;1.85;0.90;;;14.20;99.90;;;;;;4971232;28;20464;-80
2023/08/02 05:08:49;;;;;;;4.82;1.40;;;14.30;99.90;;;;;;4972058;28;20049;-80
2023/08/02 05:11:15;;;;;;;2.80;1.20;;;14.30;99.90;;;;;;4971237;28;20393;-80
2023/08/02 05:13:41;;;;;;;4.88;1.27;;;14.30;99.90;;;;;;4970928;28;20059;-80
2023/08/02 05:16:12;;;;;;;3.53;1.40;;;14.40;99.90;;;;;;4972265;28;20035;-80
2023/08/02 05:18:39;;;;;;;5.25;1.27;;;14.40;99.90;;;;;;4972164;28;20193;-80
2023/08/02 05:21:14;;;;;;;2.65;1.48;;;14.40;99.90;;;;;;4972399;28;20085;-81
2023/08/02 05:23:40;;;;;;;10.00;1.67;;;14.40;99.90;;;;;;4971643;28;20034;-81
2023/08/02 05:26:07;;;;;;;4.68;1.30;;;14.40;99.90;;;;;;4972169;28;20031;-81
2023/08/02 05:28:33;;;;;;;6.15;1.17;;;14.50;99.90;;;;;;4971285;28;20042;-81
2023/08/02 05:30:59;;;;;;;3.10;1.15;;;14.40;99.90;;;;;;4972128;28;20034;-81
2023/08/02 05:33:25;;;;;;;5.45;1.30;;;14.40;99.90;;;;;;4971433;28;20031;-80
2023/08/02 05:35:51;;;;;;;7.15;1.40;;;14.40;99.90;;;;;;4970602;28;20109;-80
2023/08/02 05:38:17;;;;;;;5.95;1.25;;;14.50;99.90;;;;;;4974678;28;20060;-80
2023/08/02 05:40:43;;;;;;;5.35;1.25;;;14.50;99.90;;;;;;4975659;28;20388;-81
2023/08/02 05:43:09;;;;;;;2.50;0.98;;;14.50;99.90;;;;;;4975789;28;20110;-81
2023/08/02 05:45:35;;;;;;;3.40;1.00;;;14.50;99.90;;;;;;4975268;28;20023;-81
2023/08/02 05:48:00;;;;;;;5.53;1.45;;;14.60;99.90;;;;;;4975594;28;20031;-81
2023/08/02 05:50:28;;;;;;;5.45;1.10;;;14.60;99.90;;;;;;4974875;28;20038;-81
2023/08/02 05:52:54;;;;;;;3.72;1.00;;;14.60;99.90;;;;;;4973914;28;20022;-80
2023/08/02 05:55:20;;;;;;;5.55;1.05;;;14.60;99.90;;;;;;4974535;28;20472;-79
2023/08/02 05:57:45;;;;;;;5.22;1.17;;;14.60;99.90;;;;;;4974663;28;20031;-80
2023/08/02 06:00:11;;;;;;;8.63;1.33;;;14.60;99.90;;;;;;4974539;28;20038;-80
2023/08/02 06:02:38;;;;;;;4.13;1.05;;;14.60;99.90;;;;;;4974438;28;20110;-80
2023/08/02 06:05:04;;;;;;;7.63;1.65;;;14.60;99.90;;;;;;4974996;28;20031;-79
2023/08/02 06:07:30;;;;;;;6.95;1.23;;;14.60;99.90;;;;;;4974332;28;20035;-79
2023/08/02 06:09:56;;;;;;;4.55;1.00;;;14.70;99.90;;;;;;4974081;28;20380;-79
2023/08/02 06:12:21;;;;;;;6.05;1.30;;;14.70;99.90;;;;;;4974592;28;20113;-78
2023/08/02 06:14:47;;;;;;;8.07;1.25;;;14.80;99.90;;;;;;4975792;28;20062;-78
2023/08/02 06:17:13;;;;;;;3.65;0.90;;;14.70;99.90;;;;;;4975134;28;20030;-79
2023/08/02 06:19:39;;;;;;;4.00;0.90;;;14.70;99.90;;;;;;4974693;28;20045;-79
2023/08/02 06:22:04;;;;;;;3.80;0.90;;;14.80;99.90;;;;;;4974800;28;20046;-79
2023/08/02 06:24:30;;;;;;;3.17;0.88;;;14.80;99.90;;;;;;4973928;28;20034;-80
2023/08/02 06:26:56;;;;;;;4.85;0.95;;;14.80;99.90;;;;;;4976580;28;20065;-79
2023/08/02 06:29:22;;;;;;;3.30;0.90;;;14.80;99.90;;;;;;4993350;28;20043;-79
2023/08/02 06:31:47;;;;;;;4.60;1.00;;;14.90;99.90;;;;;;4993424;28;20037;-79
2023/08/02 06:34:13;;;;;;;4.60;1.10;;;14.90;99.90;;;;;;4993388;28;20026;-79
2023/08/02 06:36:39;;;;;;;6.25;1.63;;;15.00;99.90;;;;;;4992954;28;20047;-79
2023/08/02 06:39:05;;;;;;;8.68;1.00;;;14.90;99.90;;;;;;4993852;28;20030;-79
2023/08/02 06:41:31;;;;;;;4.90;1.20;;;14.90;99.90;;;;;;4993185;28;20034;-79
2023/08/02 06:43:57;;;;;;;2.55;0.90;;;15.00;99.90;;;;;;4993634;28;20113;-79
2023/08/02 06:46:22;;;;;;;4.32;1.00;;;15.00;99.90;;;;;;4992757;28;20429;-80
2023/08/02 06:48:48;;;;;;;2.35;0.90;;;15.00;99.90;;;;;;4993045;28;20034;-78
2023/08/02 06:51:14;;;;;;;3.47;1.20;;;15.00;99.90;;;;;;4993672;28;20046;-79
2023/08/02 06:53:40;;;;;;;3.13;1.45;;;15.10;99.90;;;;;;4992853;28;20031;-79
2023/08/02 06:56:13;;;;;;;2.08;1.55;;;15.00;99.90;;;;;;4993053;28;20033;-79
2023/08/02 06:58:39;;;;;;;7.85;1.70;;;15.10;99.90;;;;;;4992596;28;20046;-79
2023/08/02 07:01:20;;;;;;;6.47;2.20;;;15.10;99.90;;;;;;4993244;28;20033;-78
2023/08/02 07:03:46;;;;;;;4.72;1.65;;;15.10;99.90;;;;;;4992938;28;20034;-79
2023/08/02 07:06:15;;;;;;;4.03;1.40;;;15.20;99.90;;;;;;4993145;28;20038;-79
2023/08/02 07:08:41;;;;;;;2.85;1.88;;;15.30;99.90;;;;;;4991104;28;20061;-80
2023/08/02 07:11:08;;;;;;;4.78;1.73;;;15.20;99.90;;;;;;4993138;28;20030;-79
2023/08/02 07:13:36;;;;;;;4.50;1.42;;;15.20;99.90;;;;;;4992283;28;20115;-80
2023/08/02 07:16:03;;;;;;;4.57;1.88;;;15.20;99.90;;;;;;4993007;28;20054;-79
2023/08/02 07:18:28;;;;;;;2.85;1.30;;;15.20;99.90;;;;;;4992621;28;20034;-79
2023/08/02 07:20:54;;;;;;;4.22;1.60;;;15.20;99.90;;;;;;4992813;28;20121;-80
2023/08/02 07:23:21;;;;;;;6.68;1.35;;;15.20;99.90;;;;;;4992625;28;20030;-80
2023/08/02 07:25:46;;;;;;;3.53;1.35;;;15.20;99.90;;;;;;4991982;28;20048;-80
2023/08/02 07:28:12;;;;;;;5.47;1.63;;;15.30;99.90;;;;;;4992391;28;20038;-80
2023/08/02 07:30:38;;;;;;;2.72;1.40;;;15.40;99.90;;;;;;4990798;28;20110;-80
2023/08/02 07:33:03;;;;;;;9.60;2.35;;;15.40;99.90;;;;;;4992499;28;20026;-79
2023/08/02 07:35:29;;;;;;;5.50;1.65;;;15.40;99.90;;;;;;4990339;28;20084;-78
2023/08/02 07:37:55;;;;;;;11.20;2.70;;;15.40;99.90;;;;;;4990970;28;20491;-77
2023/08/02 07:40:21;;;;;;;4.78;1.90;;;15.30;99.90;;;;;;5006746;28;20114;-78
2023/08/02 07:42:47;;;;;;;3.53;1.35;;;15.30;99.90;;;;;;4991383;28;20030;-79
2023/08/02 07:45:12;;;;;;;2.95;1.33;;;15.30;99.90;;;;;;4991617;28;20459;-79
2023/08/02 07:47:38;;;;;;;4.93;1.35;;;15.30;99.90;;;;;;4990305;28;20125;-79
2023/08/02 07:50:05;;;;;;;1.88;1.13;;;15.30;99.90;;;;;;5006373;28;20081;-78
2023/08/02 07:52:31;;;;;;;3.90;1.27;;;15.30;99.90;;;;;;4990421;28;20469;-78
2023/08/02 07:54:57;;;;;;;2.22;1.13;;;15.30;99.90;;;;;;4991422;28;20033;-78
2023/08/02 07:57:25;;;;;;;3.45;1.10;;;15.20;99.90;;;;;;4989474;28;20026;-78
2023/08/02 07:59:52;;;;;;;3.85;1.40;;;15.20;99.90;;;;;;4990694;28;20027;-78
2023/08/02 08:02:20;;;;;;;3.55;1.05;;;15.10;99.90;;;;;;4991316;28;20053;-77
2023/08/02 08:04:46;;;;;;;8.25;1.42;;;15.10;99.90;;;;;;4989850;28;20042;-78
2023/08/02 08:07:12;;;;;;;2.65;1.00;;;15.10;99.90;;;;;;4991463;28;20022;-78
2023/08/02 08:09:38;;;;;;;3.80;1.40;;;15.10;99.90;;;;;;4990254;28;20072;-78
2023/08/02 08:12:05;;;;;;;6.20;1.42;;;15.10;99.90;;;;;;4991569;28;20058;-78
2023/08/02 08:14:32;;;;;;;5.75;1.27;;;15.00;99.90;;;;;;4990213;28;20026;-78
2023/08/02 08:16:58;;;;;;;4.75;1.38;;;15.00;99.90;;;;;;4990778;28;20384;-78
2023/08/02 08:19:25;;;;;;;7.78;1.17;;;15.00;99.90;;;;;;4990837;28;20133;-79
2023/08/02 08:21:51;;;;;;;6.68;1.17;;;14.90;99.90;;;;;;4977783;28;20043;-76
2023/08/02 08:24:17;;;;;;;9.13;1.42;;;14.90;99.90;;;;;;4971388;28;20031;-77
2023/08/02 08:26:43;;;;;;;5.75;1.15;;;14.80;99.90;;;;;;4970761;28;20119;-78
2023/08/02 08:29:08;;;;;;;4.70;1.17;;;14.80;99.90;;;;;;4971317;28;20030;-78
2023/08/02 08:31:34;;;;;;;6.68;1.10;;;14.80;99.90;;;;;;4970367;28;20062;-79
2023/08/02 08:34:00;;;;;;;2.90;0.93;;;14.80;99.90;;;;;;4971491;28;20027;-79
2023/08/02 08:36:31;;;;;;;3.47;0.90;;;14.70;99.90;;;;;;4970560;28;20023;-78
2023/08/02 08:38:57;;;;;;;1.55;0.63;;;14.70;99.90;;;;;;4971352;28;20036;-79
2023/08/02 08:41:23;;;;;;;3.72;1.02;;;14.60;99.90;;;;;;4971447;28;20383;-78
2023/08/02 08:43:49;;;;;;;6.22;1.05;;;14.70;99.90;;;;;;4970660;28;20110;-78
2023/08/02 08:46:15;;;;;;;3.92;1.10;;;14.70;99.90;;;;;;4969835;28;20437;-78
2023/08/02 08:48:42;;;;;;;1.73;0.70;;;14.70;99.90;;;;;;4970428;28;20054;-78
2023/08/02 08:51:12;;;;;;;5.65;1.20;;;14.70;99.90;;;;;;4971059;28;20118;-78
2023/08/02 08:53:44;;;;;;;4.55;1.00;;;14.70;99.90;;;;;;4968766;28;20023;-77
2023/08/02 08:56:10;;;;;;;2.85;0.95;;;14.70;99.90;;;;;;4971083;28;20043;-77
2023/08/02 08:58:37;;;;;;;3.92;1.20;;;14.60;99.90;;;;;;4970140;28;20039;-77
2023/08/02 09:01:05;;;;;;;4.25;1.40;;;14.50;99.90;;;;;;4971206;28;20444;-78
2023/08/02 09:03:33;;;;;;;4.60;1.48;;;14.50;99.90;;;;;;4968852;28;20043;-77
2023/08/02 09:06:00;;;;;;;8.50;2.08;;;14.50;99.90;;;;;;4971092;28;20026;-77
2023/08/02 09:08:26;;;;;;;4.03;1.75;;;14.50;99.90;;;;;;4969860;28;20039;-78
2023/08/02 09:10:53;;;;;;;7.43;1.88;;;14.50;99.90;;;;;;4973323;28;20037;-76
2023/08/02 09:13:23;;;;;;;8.93;1.92;;;14.50;99.90;;;;;;4975432;28;20023;-77
2023/08/02 09:16:03;;;;;;;9.07;1.98;;;14.50;99.90;;;;;;4974465;28;20113;-77
2023/08/02 09:18:43;;;;;;;10.80;2.00;;;14.40;99.90;;;;;;4975415;28;20326;-77
2023/08/02 09:21:13;;;;;;;7.57;1.90;;;14.40;99.90;;;;;;4975552;28;20057;-76
2023/08/02 09:23:39;;;;;;;8.63;2.05;;;14.50;99.90;;;;;;4974212;28;20337;-77
2023/08/02 09:26:20;;;;;;;13.00;2.15;;;14.50;99.90;;;;;;4975232;28;20030;-76
2023/08/02 09:29:03;;;;;;;12.13;2.50;;;14.50;99.90;;;;;;4974300;28;20121;-77
2023/08/02 09:31:31;;;;;;;9.30;2.20;;;14.40;99.90;;;;;;4974314;28;20038;-77
2023/08/02 09:33:58;;;;;;;8.95;2.90;;;14.40;99.90;;;;;;4974954;28;20093;-77
2023/08/02 09:36:30;;;;;;;10.50;3.03;;;14.40;99.90;;;;;;4975003;28;20034;-77
2023/08/02 09:38:57;;;;;;;11.20;3.20;;;14.40;99.90;;;;;;4974698;28;20116;-77
2023/08/02 09:41:24;;;;;;;11.38;3.13;;;14.50;99.90;;;;;;4974783;28;20148;-77
2023/08/02 09:43:51;;;;;;;16.10;3.28;;;14.60;99.90;;;;;;4974561;28;20031;-77
2023/08/02 09:46:34;;;;;;;17.25;3.33;;;14.60;99.90;;;;;;4974468;28;20113;-77
2023/08/02 09:49:01;;;;;;;14.43;3.15;;;14.60;99.90;;;;;;4974581;28;20027;-77
2023/08/02 09:51:40;;;;;;;9.88;3.13;;;14.60;99.90;;;;;;4973307;28;20045;-78
2023/08/02 09:54:07;;;;;;;11.02;2.75;;;14.60;99.90;;;;;;4974124;28;20023;-78
2023/08/02 09:56:35;;;;;;;7.60;2.47;;;14.60;99.90;;;;;;4972037;28;20030;-78
2023/08/02 09:59:03;;;;;;;10.65;2.58;;;14.60;99.90;;;;;;4974349;28;20132;-78
2023/08/02 10:01:29;;;;;;;10.38;2.70;;;14.60;99.90;;;;;;4974145;28;20031;-77
2023/08/02 10:03:58;;;;;;;14.00;2.75;;;14.60;99.90;;;;;;4974872;28;20094;-77
2023/08/02 10:06:44;;;;;;;8.18;2.38;;;14.60;99.90;;;;;;4974627;28;20129;-78
2023/08/02 10:09:14;;;;;;;8.60;2.08;;;14.60;99.90;;;;;;4974215;28;20113;-77
2023/08/02 10:11:45;;;;;;;9.15;2.03;;;14.50;99.90;;;;;;4974058;28;20030;-77
2023/08/02 10:14:12;;;;;;;10.38;2.35;;;14.50;99.90;;;;;;4974025;28;20079;-77
2023/08/02 10:16:40;;;;;;;6.97;2.20;;;14.50;99.90;;;;;;4973112;28;20046;-77
2023/08/02 10:19:07;;;;;;;10.35;2.08;;;14.50;99.90;;;;;;4974910;28;20156;-76
2023/08/02 10:21:35;;;;;;;12.57;2.47;;;14.50;99.90;;;;;;4973511;28;20170;-77
2023/08/02 10:24:01;;;;;;;10.02;2.35;;;14.60;99.90;;;;;;4972707;28;20455;-77
2023/08/02 10:26:31;;;;;;;10.32;2.30;;;14.60;99.90;;;;;;4973994;28;20070;-77
2023/08/02 10:28:59;;;;;;;9.88;1.70;;;14.60;99.90;;;;;;4973977;28;20034;-79
2023/08/02 10:31:26;;;;;;;6.28;1.70;;;14.50;99.90;;;;;;4974155;28;20353;-78
2023/08/02 10:33:52;;;;;;;7.93;1.90;;;14.50;99.90;;;;;;4974030;28;20027;-78
2023/08/02 10:36:17;;;;;;;8.13;1.73;;;14.50;99.90;;;;;;4974075;28;20023;-77
2023/08/02 10:38:43;;;;;;;6.85;1.90;;;14.50;99.90;;;;;;4973516;28;20458;-78
2023/08/02 10:41:21;;;;;;;5.07;1.80;;;14.60;99.90;;;;;;4974245;28;20027;-77
2023/08/02 10:43:57;;;;;;;5.80;2.03;;;14.70;99.90;;;;;;4973939;28;20035;-79
2023/08/02 10:46:32;;;;;;;8.57;2.70;;;14.70;99.90;;;;;;4974071;28;20112;-81
2023/08/02 10:49:18;;;;;;;5.95;2.25;;;14.70;99.90;;;;;;4973924;28;20050;-78
2023/08/02 10:51:45;;;;;;;7.10;2.20;;;14.70;99.90;;;;;;4969617;28;20126;-79
2023/08/02 10:54:19;;;;;;;7.03;2.72;;;14.70;99.90;;;;;;4981536;28;20364;-80
2023/08/02 10:56:58;;;;;;;7.20;3.85;;;14.80;99.90;;;;;;4993528;28;20030;-79
2023/08/02 10:59:24;;;;;;;7.18;3.47;;;14.70;99.90;;;;;;4993566;28;20049;-79
2023/08/02 11:02:11;;;;;;;8.95;4.43;;;14.70;99.90;;;;;;4994580;28;20053;-78
2023/08/02 11:04:44;;;;;;;9.02;4.22;;;14.70;99.90;;;;;;4992612;28;20472;-79
2023/08/02 11:07:24;;;;;;;9.32;4.60;;;14.70;99.90;;;;;;4992907;28;20073;-78
2023/08/02 11:09:53;;;;;;;8.85;4.82;;;14.70;99.90;;;;;;4992377;28;20045;-76
2023/08/02 11:12:20;;;;;;;9.25;4.68;;;14.70;99.90;;;;;;4992461;28;20114;-77
2023/08/02 11:14:49;;;;;;;8.32;4.55;;;14.70;99.90;;;;;;4990696;28;20129;-77
2023/08/02 11:17:20;;;;;;;8.50;4.40;;;14.70;99.90;;;;;;4992613;28;20375;-75
2023/08/02 11:19:54;;;;;;;9.20;4.43;;;14.60;99.90;;;;;;4992088;28;20022;-75
2023/08/02 11:22:20;;;;;;;7.88;5.18;;;14.60;99.90;;;;;;5006702;28;20027;-76
2023/08/02 11:24:56;;;;;;;9.52;5.18;;;14.60;99.90;;;;;;4991848;28;20076;-76
2023/08/02 11:27:24;;;;;;;8.32;4.60;;;14.60;99.90;;;;;;4992358;28;20042;-75
2023/08/02 11:30:04;;;;;;;8.20;4.03;;;14.60;99.90;;;;;;4991708;28;20042;-76
2023/08/02 11:32:32;;;;;;;8.30;4.68;;;14.60;99.90;;;;;;4991972;28;20169;-76
2023/08/02 11:34:58;;;;;;;8.90;4.28;;;14.70;99.90;;;;;;4991116;28;20109;-74
2023/08/02 11:37:24;;;;;;;7.38;4.20;;;14.70;99.90;;;;;;4992248;28;20046;-76
2023/08/02 11:39:51;;;;;;;9.57;4.03;;;14.60;99.90;;;;;;4991926;28;20226;-75
2023/08/02 11:42:17;;;;;;;7.40;4.45;;;14.70;99.90;;;;;;4992149;28;20041;-75
2023/08/02 11:44:44;;;;;;;6.70;3.80;;;14.60;99.90;;;;;;4992068;28;20014;-75
2023/08/02 11:47:10;;;;;;;6.75;3.20;;;14.70;99.90;;;;;;4991922;28;20116;-76
2023/08/02 11:49:49;;;;;;;7.60;3.13;;;14.60;99.90;;;;;;4990109;28;20329;-77
2023/08/02 11:52:27;;;;;;;8.63;3.78;;;14.70;99.90;;;;;;4992120;28;20376;-76
2023/08/02 11:54:54;;;;;;;6.97;4.00;;;14.70;99.90;;;;;;4990229;28;20582;-76
2023/08/02 11:57:21;;;;;;;5.55;3.42;;;14.70;99.90;;;;;;4992009;28;20384;-75
2023/08/02 11:59:48;;;;;;;3.15;2.58;;;14.70;99.90;;;;;;4991309;28;20026;-76
2023/08/02 12:02:34;;;;;;;5.93;3.00;;;14.70;99.90;;;;;;4991964;28;20383;-76
2023/08/02 12:05:05;;;;;;;5.43;2.60;;;14.70;99.90;;;;;;4992063;28;20023;-77
2023/08/02 12:07:33;;;;;;;3.03;2.72;;;14.70;99.90;;;;;;4992110;28;20080;-77
2023/08/02 12:10:01;;;;;;;4.80;2.47;;;14.80;99.90;;;;;;4992040;28;20061;-77
2023/08/02 12:12:33;;;;;;;5.13;2.60;;;14.90;99.90;;;;;;4990690;28;20380;-77
2023/08/02 12:15:08;;;;;;;10.10;2.78;;;14.90;99.90;;;;;;4972059;28;20026;-77
2023/08/02 12:17:34;;;;;;;4.70;1.92;;;15.00;99.90;;;;;;4970046;28;20033;-77
2023/08/02 12:19:59;;;;;;;2.63;1.70;;;15.00;99.90;;;;;;4972358;28;20444;-76
2023/08/02 12:22:25;;;;;;;4.35;1.95;;;15.00;99.90;;;;;;4972230;28;20030;-76
2023/08/02 12:25:05;;;;;;;6.00;1.92;;;15.00;99.90;;;;;;4970013;28;20031;-76
2023/08/02 12:27:31;;;;;;;2.80;2.20;;;15.00;99.90;;;;;;4972276;28;20031;-74
2023/08/02 12:30:09;;;;;;;2.78;1.77;;;15.00;99.90;;;;;;4971659;28;20030;-74
2023/08/02 12:32:35;;;;;;;3.05;1.80;;;15.00;99.90;;;;;;4971800;28;20097;-77
2023/08/02 12:35:06;;;;;;;3.20;2.00;;;14.90;99.90;;;;;;4971901;28;20035;-75
2023/08/02 12:37:32;;;;;;;4.93;2.20;;;14.90;99.90;;;;;;4972111;28;20373;-76
2023/08/02 12:39:58;;;;;;;5.68;2.25;;;14.90;99.90;;;;;;4971388;28;20031;-76
2023/08/02 12:42:23;;;;;;;7.10;2.38;;;14.80;99.90;;;;;;4971658;28;20478;-76
2023/08/02 12:44:49;;;;;;;5.35;2.80;;;14.80;99.90;;;;;;4969653;28;20101;-76
2023/08/02 12:47:15;;;;;;;9.65;2.83;;;14.80;99.90;;;;;;4971604;28;20110;-75